createdAt,value
2022-09-30T00:00:10.649Z,15.50
2022-09-30T00:05:33.953Z,15.70
2022-09-30T00:10:37.263Z,18.00
2022-09-30T00:15:40.572Z,16.20
2022-09-30T00:20:43.923Z,17.20
2022-09-30T00:25:48.481Z,16.40
2022-09-30T00:30:51.763Z,11.30
2022-09-30T00:35:55.463Z,21.40
2022-09-30T00:41:01.813Z,18.50
2022-09-30T00:46:06.648Z,17.20
2022-09-30T00:51:10.827Z,18.00
2022-09-30T00:56:26.841Z,21.50
2022-09-30T01:01:31.584Z,22.60
2022-09-30T01:06:34.986Z,20.60
2022-09-30T01:11:38.309Z,19.30
2022-09-30T01:16:44.071Z,16.00
2022-09-30T01:21:59.261Z,14.50
2022-09-30T01:27:24.278Z,16.40
2022-09-30T01:33:01.286Z,21.50
2022-09-30T01:38:18.045Z,20.80
2022-09-30T01:43:47.329Z,17.50
2022-09-30T01:49:11.425Z,17.30
2022-09-30T01:55:00.816Z,19.10
2022-09-30T02:00:09.737Z,17.10
2022-09-30T02:05:22.393Z,14.50
2022-09-30T02:10:53.523Z,14.50
2022-09-30T02:16:02.945Z,13.30
2022-09-30T02:21:11.118Z,20.10
2022-09-30T02:26:25.277Z,16.00
2022-09-30T02:31:32.195Z,17.90
2022-09-30T02:37:00.493Z,20.90
2022-09-30T02:42:16.706Z,16.50
2022-09-30T02:47:30.163Z,16.40
2022-09-30T02:53:52.729Z,19.90
2022-09-30T02:58:58.103Z,13.00
2022-09-30T03:04:07.339Z,20.40
2022-09-30T03:09:11.079Z,20.50
2022-09-30T03:14:38.843Z,18.30
2022-09-30T03:20:15.096Z,19.30
2022-09-30T03:25:59.807Z,20.90
2022-09-30T03:31:38.606Z,18.70
2022-09-30T03:37:22.319Z,18.60
2022-09-30T03:42:39.855Z,18.10
2022-09-30T03:47:52.793Z,14.70
2022-09-30T03:52:56.413Z,18.60
2022-09-30T03:58:00.132Z,18.60
2022-09-30T04:03:03.443Z,22.50
2022-09-30T04:08:06.962Z,23.30
2022-09-30T04:13:11.804Z,19.80
2022-09-30T04:18:15.069Z,23.50
2022-09-30T04:23:18.331Z,19.90
2022-09-30T04:28:23.387Z,19.50
2022-09-30T04:33:27.472Z,20.70
2022-09-30T04:38:32.052Z,17.40
2022-09-30T04:43:35.357Z,19.30
2022-09-30T04:48:38.883Z,23.90
2022-09-30T04:53:43.010Z,24.80
2022-09-30T04:58:47.151Z,24.10
2022-09-30T05:03:51.065Z,20.60
2022-09-30T05:08:54.473Z,19.80
2022-09-30T05:13:57.792Z,19.20
2022-09-30T05:19:01.409Z,19.30
2022-09-30T05:24:04.930Z,18.20
2022-09-30T05:29:10.903Z,20.00
2022-09-30T05:34:17.084Z,18.60
2022-09-30T05:39:20.760Z,23.30
2022-09-30T05:44:24.238Z,27.10
2022-09-30T05:49:28.455Z,24.60
2022-09-30T05:54:31.969Z,21.80
2022-09-30T05:59:35.792Z,19.00
2022-09-30T06:04:39.207Z,18.50
2022-09-30T06:09:46.348Z,28.00
2022-09-30T06:14:49.816Z,23.70
2022-09-30T06:19:53.439Z,25.90
2022-09-30T06:24:57.467Z,22.40
2022-09-30T06:30:01.193Z,22.50
2022-09-30T06:35:05.681Z,21.60
2022-09-30T06:40:10.264Z,29.20
2022-09-30T06:45:23.682Z,27.70
2022-09-30T06:50:33.388Z,29.90
2022-09-30T06:55:39.552Z,23.90
2022-09-30T07:00:43.079Z,29.40
2022-09-30T07:05:46.450Z,28.40
2022-09-30T07:10:50.163Z,21.20
2022-09-30T07:15:56.795Z,19.00
2022-09-30T07:21:00.136Z,25.80
2022-09-30T07:26:05.873Z,30.30
2022-09-30T07:31:33.476Z,25.80
2022-09-30T07:36:41.532Z,27.10
2022-09-30T07:41:45.468Z,22.50
2022-09-30T07:46:49.021Z,22.40
2022-09-30T07:51:58.783Z,24.90
2022-09-30T07:57:10.085Z,19.40
2022-09-30T08:02:18.364Z,27.50
2022-09-30T08:07:22.261Z,30.50
2022-09-30T08:12:25.649Z,34.60
2022-09-30T08:17:29.060Z,35.90
2022-09-30T08:22:32.478Z,38.10
2022-09-30T08:27:36.425Z,41.60
2022-09-30T08:32:39.919Z,33.30
2022-09-30T08:37:43.335Z,47.80
2022-09-30T08:43:24.653Z,31.10
2022-09-30T08:48:50.885Z,38.00
2022-09-30T08:53:57.983Z,21.50
2022-09-30T08:59:30.998Z,20.20
2022-09-30T09:04:34.443Z,27.90
2022-09-30T09:10:18.371Z,20.70
2022-09-30T09:15:37.966Z,18.10
2022-09-30T09:21:00.116Z,19.30
2022-09-30T09:26:05.368Z,17.70
2022-09-30T09:31:17.571Z,17.90
2022-09-30T09:37:06.916Z,19.20
2022-09-30T09:42:36.330Z,18.80
2022-09-30T09:47:39.621Z,21.40
2022-09-30T09:53:39.969Z,17.70
2022-09-30T09:59:19.757Z,18.10
2022-09-30T10:04:31.299Z,18.60
2022-09-30T10:09:39.479Z,14.80
2022-09-30T10:14:50.667Z,20.30
2022-09-30T10:20:01.200Z,14.30
2022-09-30T10:25:21.595Z,16.20
2022-09-30T10:30:55.532Z,15.40
2022-09-30T10:36:13.027Z,17.00
2022-09-30T10:41:24.907Z,14.10
2022-09-30T10:46:42.009Z,12.10
2022-09-30T10:51:46.855Z,12.20
2022-09-30T10:56:53.638Z,11.70
2022-09-30T11:02:11.553Z,12.40
2022-09-30T11:07:27.678Z,14.20
2022-09-30T11:13:25.260Z,14.70
2022-09-30T11:18:52.792Z,12.70
2022-09-30T11:24:30.255Z,9.30
2022-09-30T11:30:24.251Z,29.10
2022-09-30T11:35:43.743Z,10.70
2022-09-30T11:41:07.476Z,7.00
2022-09-30T11:46:54.673Z,9.40
2022-09-30T11:52:35.773Z,9.80
2022-09-30T11:58:00.672Z,17.10
2022-09-30T12:03:17.958Z,14.70
2022-09-30T12:08:30.985Z,10.20
2022-09-30T12:13:41.346Z,8.70
2022-09-30T12:18:54.192Z,9.00
2022-09-30T12:24:11.727Z,8.90
2022-09-30T12:29:37.567Z,9.10
2022-09-30T12:35:25.422Z,9.50
2022-09-30T12:41:01.557Z,7.40
2022-09-30T12:46:15.694Z,8.70
2022-09-30T12:51:35.685Z,9.80
2022-09-30T12:56:44.596Z,10.50
2022-09-30T13:01:49.214Z,8.40
2022-09-30T13:06:52.667Z,10.40
2022-09-30T13:11:56.004Z,8.40
2022-09-30T13:17:08.209Z,8.70
2022-09-30T13:22:29.933Z,8.80
2022-09-30T13:27:55.641Z,11.10
2022-09-30T13:32:59.922Z,8.40
2022-09-30T13:38:40.499Z,8.10
2022-09-30T13:44:04.288Z,9.20
2022-09-30T13:50:05.354Z,8.70
2022-09-30T13:55:22.929Z,8.90
2022-09-30T14:00:50.614Z,7.80
2022-09-30T14:06:39.570Z,9.80
2022-09-30T14:12:12.622Z,9.70
2022-09-30T14:17:52.650Z,16.30
2022-09-30T14:22:57.344Z,12.50
2022-09-30T14:28:08.666Z,12.90
2022-09-30T14:33:24.494Z,11.90
2022-09-30T14:38:31.492Z,10.40
2022-09-30T14:43:43.055Z,9.50
2022-09-30T14:48:50.891Z,11.70
2022-09-30T14:54:02.846Z,15.40
2022-09-30T14:59:25.051Z,9.90
2022-09-30T15:04:41.260Z,10.20
2022-09-30T15:09:48.454Z,11.80
2022-09-30T15:14:57.534Z,29.80
2022-09-30T15:20:01.061Z,11.70
2022-09-30T15:25:05.706Z,15.10
2022-09-30T15:30:15.159Z,12.90
2022-09-30T15:35:24.206Z,12.40
2022-09-30T15:40:46.161Z,15.30
2022-09-30T15:45:51.727Z,16.40
2022-09-30T15:51:03.498Z,13.30
2022-09-30T15:56:25.885Z,13.40
2022-09-30T16:01:45.478Z,13.80
2022-09-30T16:07:09.891Z,19.00
2022-09-30T16:12:13.157Z,18.40
2022-09-30T16:17:30.222Z,17.90
2022-09-30T16:22:42.869Z,21.30
2022-09-30T16:27:47.102Z,20.60
2022-09-30T16:32:55.416Z,23.30
2022-09-30T16:38:02.951Z,25.20
2022-09-30T16:43:08.084Z,28.60
2022-09-30T16:48:17.653Z,35.80
2022-09-30T16:53:21.161Z,42.70
2022-09-30T16:58:24.991Z,43.00
2022-09-30T17:03:28.504Z,45.10
2022-09-30T17:08:32.322Z,23.00
2022-09-30T17:13:36.009Z,21.90
2022-09-30T17:18:39.478Z,21.60
2022-09-30T17:23:42.934Z,21.80
2022-09-30T17:28:46.495Z,39.70
2022-09-30T17:33:49.904Z,29.60
2022-09-30T17:38:55.109Z,35.50
2022-09-30T17:44:01.173Z,37.80
2022-09-30T17:49:04.655Z,31.90
2022-09-30T17:54:10.837Z,33.30
2022-09-30T17:59:14.209Z,49.20
2022-09-30T18:04:21.753Z,49.00
2022-09-30T18:09:25.203Z,43.60
2022-09-30T18:14:35.338Z,33.30
2022-09-30T18:19:38.753Z,34.30
2022-09-30T18:25:00.908Z,32.60
2022-09-30T18:30:06.768Z,37.40
2022-09-30T18:35:12.555Z,31.70
2022-09-30T18:40:19.491Z,28.70
2022-09-30T18:45:24.342Z,29.60
2022-09-30T18:50:29.922Z,30.80
2022-09-30T18:55:33.280Z,31.00
2022-09-30T19:00:38.161Z,26.80
2022-09-30T19:05:42.040Z,28.80
2022-09-30T19:10:45.563Z,30.00
2022-09-30T19:15:48.973Z,26.30
2022-09-30T19:20:52.486Z,27.20
2022-09-30T19:25:55.903Z,32.20
2022-09-30T19:31:04.345Z,34.70
2022-09-30T19:36:14.943Z,30.60
2022-09-30T19:41:19.341Z,29.80
2022-09-30T19:46:22.777Z,28.80
2022-09-30T19:51:28.435Z,34.40
2022-09-30T19:56:32.062Z,32.20
2022-09-30T20:01:36.241Z,29.90
2022-09-30T20:06:41.241Z,36.00
2022-09-30T20:11:45.673Z,44.40
2022-09-30T20:16:49.361Z,30.30
2022-09-30T20:21:54.715Z,34.40
2022-09-30T20:26:58.584Z,45.30
2022-09-30T20:32:02.569Z,45.60
2022-09-30T20:37:06.121Z,41.30
2022-09-30T20:42:09.496Z,28.00
2022-09-30T20:47:12.846Z,26.10
2022-09-30T20:52:16.259Z,26.30
2022-09-30T20:57:19.671Z,24.20
2022-09-30T21:02:27.877Z,26.70
2022-09-30T21:07:31.368Z,23.50
2022-09-30T21:12:34.728Z,48.60
2022-09-30T21:17:40.567Z,45.30
2022-09-30T21:22:44.011Z,24.10
2022-09-30T21:27:49.271Z,23.30
2022-09-30T21:32:52.890Z,22.60
2022-09-30T21:37:56.300Z,34.00
2022-09-30T21:42:59.669Z,26.90
2022-09-30T21:48:06.575Z,44.50
2022-09-30T21:53:10.435Z,19.00
2022-09-30T21:58:15.218Z,19.70
2022-09-30T22:03:19.131Z,23.50
2022-09-30T22:08:23.135Z,20.70
2022-09-30T22:13:26.649Z,26.50
2022-09-30T22:18:32.417Z,22.80
2022-09-30T22:23:35.855Z,23.90
2022-09-30T22:28:40.542Z,20.50
2022-09-30T22:34:02.934Z,26.90
2022-09-30T22:39:06.350Z,24.00
2022-09-30T22:44:09.969Z,24.30
2022-09-30T22:49:13.896Z,19.30
2022-09-30T22:54:17.618Z,24.20
2022-09-30T22:59:23.228Z,18.80
2022-09-30T23:04:27.723Z,17.80
2022-09-30T23:09:31.547Z,19.80
2022-09-30T23:14:34.956Z,22.90
2022-09-30T23:19:38.371Z,19.40
2022-09-30T23:24:41.745Z,20.00
2022-09-30T23:29:45.201Z,19.10
2022-09-30T23:34:48.613Z,23.00
2022-09-30T23:39:51.930Z,23.80
2022-09-30T23:44:55.337Z,23.80
2022-09-30T23:49:58.750Z,18.40
2022-09-30T23:55:02.573Z,19.80
